Time;durP1;ratioP1;P1;durP2;ratioP2;P2;SDS_P1;SDS_P2;PMS_P1;PMS_P2;Temp;Humidity;BMP_temperature;BMP_pressure;BME280_temperature;BME280_humidity;BME280_pressure;Samples;Min_cycle;Max_cycle;Signal;HPM_P1;HPM_P2
2023/02/26 00:01:15;;;;;;;;;;;;;;;1.77;96.68;101813.78;5030020;28;20055;-65
2023/02/26 00:03:42;;;;;;;;;;;;;;;1.73;97.63;101814.81;5021663;28;20703;-65
2023/02/26 00:06:09;;;;;;;;;;;;;;;1.74;98.69;101819.06;5037609;28;19933;-65
2023/02/26 00:08:35;;;;;;;;;;;;;;;1.74;98.72;101824.25;5002173;28;19928;-68
2023/02/26 00:11:05;;;;;;;;;;;;;;;1.73;98.77;101823.41;5032593;28;19925;-66
2023/02/26 00:13:31;;;;;;;;;;;;;;;1.73;98.23;101830.34;5031222;28;19936;-65
2023/02/26 00:15:59;;;;;;;;;;;;;;;1.71;98.32;101838.16;5025184;28;19949;-65
2023/02/26 00:18:26;;;;;;;;;;;;;;;1.72;98.30;101836.41;5036471;28;19920;-66
2023/02/26 00:20:53;;;;;;;;;;;;;;;1.69;99.49;101845.13;5019740;28;19928;-66
2023/02/26 00:23:19;;;;;;;;;;;;;;;1.68;100.00;101845.19;5035066;28;19963;-65
2023/02/26 00:25:45;;;;;;;;;;;;;;;1.70;99.06;101845.97;5036263;28;19928;-65
2023/02/26 00:28:12;;;;;;;;;;;;;;;1.71;100.00;101845.09;5032919;28;19925;-66
2023/02/26 00:30:39;;;;;;;;;;;;;;;1.71;99.43;101853.69;5036743;28;20039;-65
2023/02/26 00:33:05;;;;;;;;;;;;;;;1.69;98.85;101857.25;5022103;28;19921;-64
2023/02/26 00:35:32;;;;;;;;;;;;;;;1.68;99.04;101860.72;5022108;28;20310;-67
2023/02/26 00:38:01;;;;;;;;;;;;;;;1.68;99.49;101858.13;5016298;28;19932;-66
2023/02/26 00:40:34;;;;;;;;;;;;;;;1.70;99.39;101864.91;5032243;28;19968;-64
2023/02/26 00:43:05;;;;;;;;;;;;;;;1.67;99.79;101864.22;5023964;28;19935;-65
2023/02/26 00:45:32;;;;;;;;;;;;;;;1.66;100.00;101867.69;5032028;28;19932;-65
2023/02/26 00:48:12;;;;;;;;;;;;;;;1.67;99.89;101874.56;5023896;28;19925;-64
2023/02/26 00:50:42;;;;;;;;;;;;;;;1.66;98.95;101868.53;5016474;28;19925;-64
2023/02/26 00:53:14;;;;;;;;;;;;;;;1.65;99.73;101879.78;5032593;28;19931;-64
2023/02/26 00:55:41;;;;;;;;;;;;;;;1.66;97.44;101883.22;5019976;28;19925;-65
2023/02/26 00:58:07;;;;;;;;;;;;;;;1.62;97.74;101879.91;5031376;28;19924;-66
2023/02/26 01:00:34;;;;;;;;;;;;;;;1.62;97.91;101868.72;5029496;28;20571;-63
2023/02/26 01:03:00;;;;;;;;;;;;;;;1.63;97.05;101884.19;5026442;28;20312;-65
2023/02/26 01:05:27;;;;;;;;;;;;;;;1.62;97.22;101882.50;5020186;28;19933;-62
2023/02/26 01:07:53;;;;;;;;;;;;;;;1.58;96.74;101886.94;5030696;28;19978;-66
2023/02/26 01:10:20;;;;;;;;;;;;;;;1.57;96.73;101882.69;5033317;28;19924;-65
2023/02/26 01:12:49;;;;;;;;;;;;;;;1.60;95.29;101889.47;5034264;28;19970;-64
2023/02/26 01:15:16;;;;;;;;;;;;;;;1.60;94.52;101884.31;5034713;28;19925;-66
2023/02/26 01:17:46;;;;;;;;;;;;;;;1.57;95.43;101882.69;5023508;28;19925;-64
2023/02/26 01:20:17;;;;;;;;;;;;;;;1.55;94.56;101886.25;5032121;28;19925;-65
2023/02/26 01:22:50;;;;;;;;;;;;;;;1.47;92.69;101883.13;5035999;28;19920;-65
2023/02/26 01:25:22;;;;;;;;;;;;;;;1.50;94.48;101883.84;5036372;28;19924;-64
2023/02/26 01:27:48;;;;;;;;;;;;;;;1.53;94.09;101888.03;5044253;28;19921;-65
2023/02/26 01:30:15;;;;;;;;;;;;;;;1.53;93.94;101890.63;5017287;28;19925;-64
2023/02/26 01:32:59;;;;;;;;;;;;;;;1.52;93.57;101894.13;5038707;28;19924;-65
2023/02/26 01:35:44;;;;;;;;;;;;;;;1.52;93.30;101899.28;5030864;28;20011;-64
2023/02/26 01:38:24;;;;;;;;;;;;;;;1.51;93.09;101897.59;5026268;28;19925;-64
2023/02/26 01:41:04;;;;;;;;;;;;;;;1.49;93.75;101897.69;5029766;28;19925;-65
2023/02/26 01:43:34;;;;;;;;;;;;;;;1.51;93.35;101907.94;5044576;28;19925;-64
2023/02/26 01:46:10;;;;;;;;;;;;;;;1.48;92.90;101908.91;5018180;28;20404;-64
2023/02/26 01:48:43;;;;;;;;;;;;;;;1.44;92.55;101902.19;5033569;28;19955;-63
2023/02/26 01:51:09;;;;;;;;;;;;;;;1.43;92.91;101910.00;5041073;28;19924;-64
2023/02/26 01:53:36;;;;;;;;;;;;;;;1.43;93.17;101905.69;5024146;28;20397;-64
2023/02/26 01:56:05;;;;;;;;;;;;;;;1.38;93.15;101910.19;5026222;28;20411;-64
2023/02/26 01:58:35;;;;;;;;;;;;;;;1.38;93.92;101912.78;5019424;28;20389;-64
2023/02/26 02:01:02;;;;;;;;;;;;;;;1.37;94.19;101911.06;5032835;28;19929;-64
2023/02/26 02:03:30;;;;;;;;;;;;;;;1.38;93.87;101911.03;5026358;28;20302;-64
2023/02/26 02:06:01;;;;;;;;;;;;;;;1.38;94.18;101912.78;5043762;28;19932;-64
2023/02/26 02:08:28;;;;;;;;;;;;;;;1.38;95.28;101926.53;5033505;28;19924;-64
2023/02/26 02:10:54;;;;;;;;;;;;;;;1.37;94.01;101924.88;5031257;28;19921;-64
2023/02/26 02:13:34;;;;;;;;;;;;;;;1.33;93.74;101923.31;5028518;28;19924;-63
2023/02/26 02:16:11;;;;;;;;;;;;;;;1.33;94.46;101928.47;5017776;28;19925;-64
2023/02/26 02:18:38;;;;;;;;;;;;;;;1.29;94.72;101926.03;5047628;28;20378;-64
2023/02/26 02:21:23;;;;;;;;;;;;;;;1.26;94.66;101929.59;5025440;28;19985;-64
2023/02/26 02:23:54;;;;;;;;;;;;;;;1.23;95.18;101941.78;5042448;28;20239;-64
2023/02/26 02:26:20;;;;;;;;;;;;;;;1.15;94.03;101942.09;5037328;28;19931;-63
2023/02/26 02:29:00;;;;;;;;;;;;;;;1.15;94.84;101940.34;5041754;28;20316;-64
2023/02/26 02:31:35;;;;;;;;;;;;;;;1.16;94.53;101944.63;5032895;28;20016;-63
2023/02/26 02:34:07;;;;;;;;;;;;;;;1.15;94.33;101949.84;5048149;28;19925;-64
2023/02/26 02:36:41;;;;;;;;;;;;;;;1.17;94.90;101955.78;5034225;28;20663;-64
2023/02/26 02:39:21;;;;;;;;;;;;;;;1.14;93.37;101961.09;5035464;28;19975;-64
2023/02/26 02:41:52;;;;;;;;;;;;;;;1.10;94.38;101970.69;5039927;28;19924;-64
2023/02/26 02:44:21;;;;;;;;;;;;;;;1.09;94.86;101970.75;5026309;28;20286;-65
2023/02/26 02:46:49;;;;;;;;;;;;;;;1.04;93.82;101967.47;5044054;28;19963;-64
2023/02/26 02:49:19;;;;;;;;;;;;;;;0.99;93.52;101973.66;5041623;28;19924;-64
2023/02/26 02:51:49;;;;;;;;;;;;;;;0.99;93.16;101981.41;5033957;28;19924;-64
2023/02/26 02:54:19;;;;;;;;;;;;;;;1.02;94.19;101977.03;5017810;28;19925;-64
2023/02/26 02:56:49;;;;;;;;;;;;;;;0.96;93.68;101978.97;5034532;28;19982;-65
2023/02/26 02:59:19;;;;;;;;;;;;;;;0.94;92.97;101985.06;5042573;28;20430;-65
2023/02/26 03:01:49;;;;;;;;;;;;;;;0.93;93.37;101989.41;5028521;28;20286;-64
2023/02/26 03:04:16;;;;;;;;;;;;;;;0.89;93.00;101992.16;5031402;28;20400;-64
2023/02/26 03:06:45;;;;;;;;;;;;;;;0.90;94.20;101988.66;5025309;28;19920;-66
2023/02/26 03:09:12;;;;;;;;;;;;;;;0.90;92.53;101994.69;5025530;28;19955;-64
2023/02/26 03:11:38;;;;;;;;;;;;;;;0.89;91.73;102000.75;5021638;28;19925;-65
2023/02/26 03:14:05;;;;;;;;;;;;;;;0.93;92.47;101997.13;5026173;28;19925;-64
2023/02/26 03:16:41;;;;;;;;;;;;;;;0.91;89.97;102001.53;5030397;28;19961;-63
2023/02/26 03:19:20;;;;;;;;;;;;;;;0.87;91.26;102002.53;5038177;28;19921;-67
2023/02/26 03:21:59;;;;;;;;;;;;;;;0.87;89.79;102007.69;5026892;28;19925;-64
2023/02/26 03:24:34;;;;;;;;;;;;;;;0.84;91.08;102018.13;5021319;28;19924;-64
2023/02/26 03:27:09;;;;;;;;;;;;;;;0.81;89.24;102009.66;5026379;28;19936;-64
2023/02/26 03:29:53;;;;;;;;;;;;;;;0.76;89.77;102013.22;5045702;28;19924;-64
2023/02/26 03:32:26;;;;;;;;;;;;;;;0.74;90.21;102020.19;5036259;28;19925;-66
2023/02/26 03:35:14;;;;;;;;;;;;;;;0.72;89.07;102026.31;5024536;28;19920;-64
2023/02/26 03:37:44;;;;;;;;;;;;;;;0.73;88.97;102025.44;5036909;28;19924;-67
2023/02/26 03:40:14;;;;;;;;;;;;;;;0.71;88.98;102020.31;5017423;28;19933;-64
2023/02/26 03:42:44;;;;;;;;;;;;;;;0.74;88.29;102022.78;5040163;28;19925;-66
2023/02/26 03:45:13;;;;;;;;;;;;;;;0.72;89.05;102019.41;5044562;28;19925;-66
2023/02/26 03:47:41;;;;;;;;;;;;;;;0.70;88.24;102028.09;5035706;28;20042;-64
2023/02/26 03:50:40;;;;;;;;;;;;;;;0.69;88.44;102032.44;5039678;28;19928;-64
2023/02/26 03:53:08;;;;;;;;;;;;;;;0.68;88.24;102037.66;4993611;28;19925;-64
2023/02/26 03:55:38;;;;;;;;;;;;;;;0.63;88.71;102039.53;5031873;28;19929;-64
2023/02/26 03:58:04;;;;;;;;;;;;;;;0.64;88.10;102043.81;5042317;28;19944;-70
2023/02/26 04:00:32;;;;;;;;;;;;;;;0.65;88.33;102042.91;5048620;28;19935;-70
2023/02/26 04:03:05;;;;;;;;;;;;;;;0.63;87.81;102052.44;5045317;28;19986;-68
2023/02/26 04:05:34;;;;;;;;;;;;;;;0.58;85.58;102056.03;5031245;28;19925;-68
2023/02/26 04:08:01;;;;;;;;;;;;;;;0.56;87.02;102052.66;5032878;28;19960;-70
2023/02/26 04:10:38;;;;;;;;;;;;;;;0.54;86.40;102058.78;5029206;28;20297;-70
2023/02/26 04:13:04;;;;;;;;;;;;;;;0.51;86.49;102064.91;5048567;28;19926;-70
2023/02/26 04:15:31;;;;;;;;;;;;;;;0.49;85.66;102065.81;5030887;28;19935;-71
2023/02/26 04:17:57;;;;;;;;;;;;;;;0.45;86.22;102070.28;5037217;28;19931;-71
2023/02/26 04:20:23;;;;;;;;;;;;;;;0.44;86.77;102076.31;5027863;28;19929;-70
2023/02/26 04:22:50;;;;;;;;;;;;;;;0.41;86.27;102078.97;5053089;28;19921;-69
2023/02/26 04:25:16;;;;;;;;;;;;;;;0.43;86.04;102079.78;5036386;28;19975;-68
2023/02/26 04:27:42;;;;;;;;;;;;;;;0.42;87.61;102078.09;5030798;28;19932;-70
2023/02/26 04:30:09;;;;;;;;;;;;;;;0.37;86.79;102083.44;5040337;28;19931;-71
2023/02/26 04:32:35;;;;;;;;;;;;;;;0.37;86.46;102088.59;5020050;28;20341;-70
2023/02/26 04:35:02;;;;;;;;;;;;;;;0.38;86.50;102100.59;5040825;28;19924;-70
2023/02/26 04:37:29;;;;;;;;;;;;;;;0.33;86.45;102099.91;5034651;28;19925;-70
2023/02/26 04:39:55;;;;;;;;;;;;;;;0.29;87.98;102100.88;5031408;28;19932;-71
2023/02/26 04:42:21;;;;;;;;;;;;;;;0.28;86.33;102106.09;5026207;28;19932;-71
2023/02/26 04:44:48;;;;;;;;;;;;;;;0.27;86.89;102112.97;5015838;28;19935;-72
2023/02/26 04:47:14;;;;;;;;;;;;;;;0.25;85.61;102119.94;5035808;28;19928;-72
2023/02/26 04:49:40;;;;;;;;;;;;;;;0.23;87.09;102120.88;5038671;28;19925;-72
2023/02/26 04:52:07;;;;;;;;;;;;;;;0.24;87.39;102125.16;5037549;28;19925;-72
2023/02/26 04:54:33;;;;;;;;;;;;;;;0.22;87.02;102121.75;5028208;28;20273;-69
2023/02/26 04:57:00;;;;;;;;;;;;;;;0.23;86.62;102126.03;5022141;28;20457;-70
2023/02/26 04:59:26;;;;;;;;;;;;;;;0.22;86.73;102130.38;5032822;28;19939;-72
2023/02/26 05:01:52;;;;;;;;;;;;;;;0.25;85.69;102137.16;5032416;28;19925;-72
2023/02/26 05:04:19;;;;;;;;;;;;;;;0.26;84.92;102138.88;5029493;28;19979;-71
2023/02/26 05:06:45;;;;;;;;;;;;;;;0.26;84.10;102141.44;5023506;28;20334;-72
2023/02/26 05:09:11;;;;;;;;;;;;;;;0.27;86.03;102141.38;5038750;28;19935;-71
2023/02/26 05:11:38;;;;;;;;;;;;;;;0.30;85.54;102143.03;5030805;28;19921;-71
2023/02/26 05:14:04;;;;;;;;;;;;;;;0.27;85.09;102141.38;5032330;28;19924;-71
2023/02/26 05:16:30;;;;;;;;;;;;;;;0.25;83.69;102153.47;5044874;28;20116;-71
2023/02/26 05:18:57;;;;;;;;;;;;;;;0.19;82.75;102143.34;5029429;28;19975;-72
2023/02/26 05:21:23;;;;;;;;;;;;;;;0.23;85.52;102149.25;5035857;28;19924;-71
2023/02/26 05:23:51;;;;;;;;;;;;;;;0.19;83.03;102153.66;5024601;28;19925;-70
2023/02/26 05:26:18;;;;;;;;;;;;;;;0.18;84.99;102152.00;5020657;28;19931;-69
2023/02/26 05:28:44;;;;;;;;;;;;;;;0.17;84.05;102163.19;5026221;28;19947;-71
2023/02/26 05:31:12;;;;;;;;;;;;;;;0.13;83.94;102159.03;5022073;28;20671;-72
2023/02/26 05:33:38;;;;;;;;;;;;;;;0.15;84.15;102168.41;5043052;28;20351;-71
2023/02/26 05:36:05;;;;;;;;;;;;;;;0.14;84.99;102171.88;5040385;28;19925;-72
2023/02/26 05:38:32;;;;;;;;;;;;;;;0.09;83.32;102172.91;5040205;28;19929;-72
2023/02/26 05:40:59;;;;;;;;;;;;;;;0.14;85.75;102171.88;5039650;28;19925;-72
2023/02/26 05:43:25;;;;;;;;;;;;;;;0.15;85.73;102170.97;5037594;28;19931;-72
2023/02/26 05:45:52;;;;;;;;;;;;;;;0.16;83.93;102180.41;5038312;28;19929;-72
2023/02/26 05:48:18;;;;;;;;;;;;;;;0.15;83.46;102181.28;5025396;28;19924;-72
2023/02/26 05:50:45;;;;;;;;;;;;;;;0.13;82.83;102189.97;5034331;28;19951;-71
2023/02/26 05:53:11;;;;;;;;;;;;;;;0.08;83.20;102187.56;5035354;28;19934;-72
2023/02/26 05:55:38;;;;;;;;;;;;;;;0.11;82.95;102195.19;5035457;28;20377;-72
2023/02/26 05:58:04;;;;;;;;;;;;;;;0.08;83.88;102194.41;5034526;28;19932;-72
2023/02/26 06:00:30;;;;;;;;;;;;;;;0.06;83.63;102193.63;5038069;28;19925;-72
2023/02/26 06:02:57;;;;;;;;;;;;;;;0.02;83.72;102199.78;5039595;28;20639;-72
2023/02/26 06:05:23;;;;;;;;;;;;;;;0.04;83.13;102205.72;5031992;28;20028;-72
2023/02/26 06:07:50;;;;;;;;;;;;;;;0.00;82.13;102205.00;5034305;28;19925;-72
2023/02/26 06:10:16;;;;;;;;;;;;;;;0.01;84.94;102205.84;5029644;28;19932;-72
2023/02/26 06:12:42;;;;;;;;;;;;;;;-0.01;84.13;102211.88;5026694;28;19924;-72
2023/02/26 06:15:09;;;;;;;;;;;;;;;0.01;84.09;102218.72;5012693;28;19925;-72
2023/02/26 06:17:36;;;;;;;;;;;;;;;-0.01;84.01;102217.03;5039173;28;19967;-71
2023/02/26 06:20:06;;;;;;;;;;;;;;;0.00;83.69;102215.31;5032136;28;19925;-72
2023/02/26 06:22:32;;;;;;;;;;;;;;;-0.01;83.89;102221.34;5021928;28;19935;-72
2023/02/26 06:24:58;;;;;;;;;;;;;;;-0.01;83.72;102213.59;5050103;28;19931;-72
2023/02/26 06:27:25;;;;;;;;;;;;;;;-0.06;83.48;102236.09;5040374;28;20024;-72
2023/02/26 06:29:51;;;;;;;;;;;;;;;-0.08;83.49;102230.13;5043880;28;19932;-69
2023/02/26 06:32:17;;;;;;;;;;;;;;;-0.08;84.59;102237.88;5029760;28;19984;-71
2023/02/26 06:34:44;;;;;;;;;;;;;;;-0.10;84.35;102232.78;5041475;28;20260;-73
2023/02/26 06:37:10;;;;;;;;;;;;;;;-0.10;85.15;102242.25;5037318;28;19939;-73
2023/02/26 06:39:37;;;;;;;;;;;;;;;-0.12;83.50;102244.84;5030356;28;19921;-73
2023/02/26 06:42:04;;;;;;;;;;;;;;;-0.11;83.75;102243.97;5047288;28;19978;-73
2023/02/26 06:44:30;;;;;;;;;;;;;;;-0.13;84.42;102244.91;5029050;28;19925;-72
2023/02/26 06:46:56;;;;;;;;;;;;;;;-0.11;83.88;102250.88;5027885;28;19932;-73
2023/02/26 06:49:22;;;;;;;;;;;;;;;-0.08;84.00;102261.09;5022219;28;20340;-71
2023/02/26 06:51:49;;;;;;;;;;;;;;;-0.06;85.82;102252.44;5042546;28;20441;-72
2023/02/26 06:54:15;;;;;;;;;;;;;;;0.02;85.61;102259.09;5039655;28;19921;-70
2023/02/26 06:56:41;;;;;;;;;;;;;;;0.04;84.56;102262.50;5036763;28;19925;-72
2023/02/26 06:59:07;;;;;;;;;;;;;;;0.00;84.44;102272.06;5036350;28;19921;-73
2023/02/26 07:01:34;;;;;;;;;;;;;;;-0.04;83.65;102278.19;5031860;28;20289;-73
2023/02/26 07:04:00;;;;;;;;;;;;;;;-0.03;84.17;102290.19;5016981;28;19925;-70
2023/02/26 07:06:26;;;;;;;;;;;;;;;-0.03;84.32;102296.19;5036845;28;19929;-72
2023/02/26 07:08:54;;;;;;;;;;;;;;;-0.01;84.13;102293.59;5037477;28;19982;-73
2023/02/26 07:11:20;;;;;;;;;;;;;;;0.00;86.38;102292.72;5037340;28;20043;-70
2023/02/26 07:13:47;;;;;;;;;;;;;;;0.07;86.27;102301.13;5029635;28;19924;-73
2023/02/26 07:16:13;;;;;;;;;;;;;;;0.09;84.70;102309.66;5016086;28;19935;-73
2023/02/26 07:18:39;;;;;;;;;;;;;;;0.05;84.31;102318.38;5031024;28;20398;-73
2023/02/26 07:21:06;;;;;;;;;;;;;;;0.12;84.62;102319.91;5039097;28;19925;-73
2023/02/26 07:23:33;;;;;;;;;;;;;;;0.03;83.06;102318.41;5030899;28;20396;-73
2023/02/26 07:25:59;;;;;;;;;;;;;;;0.08;84.66;102328.59;5038296;28;19944;-73
2023/02/26 07:28:25;;;;;;;;;;;;;;;0.11;84.71;102338.84;5030430;28;19978;-73
2023/02/26 07:30:55;;;;;;;;;;;;;;;0.12;84.84;102340.56;5035470;28;20031;-71
2023/02/26 07:33:22;;;;;;;;;;;;;;;0.17;85.65;102343.84;5030144;28;19960;-73
2023/02/26 07:35:49;;;;;;;;;;;;;;;0.18;84.62;102345.53;5023662;28;19921;-73
2023/02/26 07:38:15;;;;;;;;;;;;;;;0.21;85.08;102345.44;5032829;28;20293;-73
2023/02/26 07:40:44;;;;;;;;;;;;;;;0.28;85.17;102353.88;5027230;28;20385;-73
2023/02/26 07:43:11;;;;;;;;;;;;;;;0.25;84.07;102353.94;5030428;28;20664;-73
2023/02/26 07:45:37;;;;;;;;;;;;;;;0.28;84.67;102353.88;5038272;28;20301;-72
2023/02/26 07:48:03;;;;;;;;;;;;;;;0.32;84.10;102360.66;5029764;28;19928;-72
2023/02/26 07:50:29;;;;;;;;;;;;;;;0.35;85.54;102357.97;5044163;28;19931;-73
2023/02/26 07:52:56;;;;;;;;;;;;;;;0.36;86.44;102357.09;5040211;28;19965;-72
2023/02/26 07:55:22;;;;;;;;;;;;;;;0.39;86.54;102364.72;5024461;28;19925;-73
2023/02/26 07:57:49;;;;;;;;;;;;;;;0.43;85.89;102356.00;5027368;28;19932;-70
2023/02/26 08:00:15;;;;;;;;;;;;;;;0.48;86.73;102361.06;5038427;28;19925;-73
2023/02/26 08:02:42;;;;;;;;;;;;;;;0.49;86.40;102366.19;5034802;28;19967;-72
2023/02/26 08:05:08;;;;;;;;;;;;;;;0.57;86.38;102369.41;5026552;28;19990;-73
2023/02/26 08:07:36;;;;;;;;;;;;;;;0.59;85.60;102375.34;5042104;28;19932;-72
2023/02/26 08:10:03;;;;;;;;;;;;;;;0.68;86.99;102374.22;5015574;28;20241;-71
2023/02/26 08:12:29;;;;;;;;;;;;;;;0.68;86.94;102379.41;5027231;28;19921;-72
2023/02/26 08:14:56;;;;;;;;;;;;;;;0.68;85.67;102379.41;5025144;28;19931;-71
2023/02/26 08:17:22;;;;;;;;;;;;;;;0.71;86.34;102388.81;5048396;28;19928;-72
2023/02/26 08:19:49;;;;;;;;;;;;;;;0.73;86.89;102381.88;5026626;28;19925;-72
2023/02/26 08:22:15;;;;;;;;;;;;;;;0.80;86.53;102388.53;5023818;28;19932;-73
2023/02/26 08:24:41;;;;;;;;;;;;;;;0.83;84.89;102385.88;5024239;28;19929;-72
2023/02/26 08:27:08;;;;;;;;;;;;;;;0.88;85.38;102390.91;5030400;28;19928;-72
2023/02/26 08:29:34;;;;;;;;;;;;;;;0.91;84.71;102393.41;5037695;28;19924;-71
2023/02/26 08:32:01;;;;;;;;;;;;;;;0.91;84.75;102398.56;5036577;28;19924;-70
2023/02/26 08:34:27;;;;;;;;;;;;;;;1.00;85.25;102408.63;5039932;28;19936;-72
2023/02/26 08:36:53;;;;;;;;;;;;;;;1.01;84.04;102410.31;5027368;28;19929;-72
2023/02/26 08:39:20;;;;;;;;;;;;;;;1.07;85.55;102417.03;5026152;28;19924;-71
2023/02/26 08:41:46;;;;;;;;;;;;;;;1.12;84.75;102415.19;5044126;28;19975;-72
2023/02/26 08:44:12;;;;;;;;;;;;;;;1.14;83.13;102408.22;5027750;28;20567;-72
2023/02/26 08:46:39;;;;;;;;;;;;;;;1.18;83.59;102417.56;5040772;28;19921;-73
2023/02/26 08:49:06;;;;;;;;;;;;;;;1.21;84.73;102430.38;5028465;28;19921;-72
2023/02/26 08:51:32;;;;;;;;;;;;;;;1.22;83.38;102426.09;5029119;28;19931;-68
2023/02/26 08:53:58;;;;;;;;;;;;;;;1.29;84.98;102435.31;5027299;28;19979;-72
2023/02/26 08:56:25;;;;;;;;;;;;;;;1.30;83.68;102430.13;5026746;28;19931;-73
2023/02/26 08:58:52;;;;;;;;;;;;;;;1.34;83.02;102442.06;5030346;28;20449;-70
2023/02/26 09:01:18;;;;;;;;;;;;;;;1.36;81.72;102445.44;5034747;28;19925;-72
2023/02/26 09:03:44;;;;;;;;;;;;;;;1.45;82.96;102443.47;5028993;28;20516;-72
2023/02/26 09:06:11;;;;;;;;;;;;;;;1.49;83.10;102450.22;5037084;28;20300;-71
2023/02/26 09:08:37;;;;;;;;;;;;;;;1.55;82.03;102458.66;5049888;28;19925;-70
2023/02/26 09:11:04;;;;;;;;;;;;;;;1.56;81.00;102462.91;5026934;28;19929;-72
2023/02/26 09:13:31;;;;;;;;;;;;;;;1.63;82.34;102473.94;5044162;28;19925;-72
2023/02/26 09:15:57;;;;;;;;;;;;;;;1.65;81.33;102466.97;5038642;28;20665;-70
2023/02/26 09:18:23;;;;;;;;;;;;;;;1.68;81.31;102472.03;5023317;28;19931;-72
2023/02/26 09:20:50;;;;;;;;;;;;;;;1.72;78.21;102478.81;5021661;28;19951;-70
2023/02/26 09:23:16;;;;;;;;;;;;;;;1.74;76.55;102482.19;5032284;28;20076;-69
2023/02/26 09:25:43;;;;;;;;;;;;;;;1.80;76.13;102478.56;5029880;28;19936;-72
2023/02/26 09:28:09;;;;;;;;;;;;;;;1.84;76.18;102484.50;5036256;28;19931;-73
2023/02/26 09:30:36;;;;;;;;;;;;;;;1.84;76.79;102487.06;5021342;28;19956;-72
2023/02/26 09:33:02;;;;;;;;;;;;;;;1.90;78.53;102495.50;5026659;28;19924;-72
2023/02/26 09:35:28;;;;;;;;;;;;;;;1.92;76.62;102491.13;5031187;28;19932;-72
2023/02/26 09:37:55;;;;;;;;;;;;;;;1.97;73.92;102485.78;5032729;28;19929;-73
2023/02/26 09:40:41;;;;;;;;;;;;;;;2.04;76.17;102489.88;5030964;28;20032;-70
2023/02/26 09:43:10;;;;;;;;;;;;;;;2.10;74.64;102492.28;5022293;28;20012;-72
2023/02/26 09:45:39;;;;;;;;;;;;;;;2.15;71.83;102499.88;5030907;28;20538;-72
2023/02/26 09:48:11;;;;;;;;;;;;;;;2.23;71.78;102494.44;5016340;28;19921;-72
2023/02/26 09:50:40;;;;;;;;;;;;;;;2.26;70.87;102497.78;5032958;28;19925;-73
2023/02/26 09:53:19;;;;;;;;;;;;;;;2.34;72.74;102505.28;5029242;28;19975;-73
2023/02/26 09:55:46;;;;;;;;;;;;;;;2.40;70.38;102512.00;5042634;28;20027;-72
2023/02/26 09:58:22;;;;;;;;;;;;;;;2.44;68.88;102516.19;5030056;28;19924;-70
2023/02/26 10:01:00;;;;;;;;;;;;;;;2.48;67.11;102510.00;5031978;28;19925;-72
2023/02/26 10:03:32;;;;;;;;;;;;;;;2.50;67.02;102515.97;5036413;28;19920;-72
2023/02/26 10:06:14;;;;;;;;;;;;;;;2.57;66.79;102513.13;5017636;28;19964;-73
2023/02/26 10:08:59;;;;;;;;;;;;;;;2.70;68.34;102518.72;5043301;28;19951;-72
2023/02/26 10:11:29;;;;;;;;;;;;;;;2.82;68.93;102516.59;5042633;28;20358;-73
2023/02/26 10:14:05;;;;;;;;;;;;;;;2.92;68.69;102518.81;5024891;28;20397;-73
2023/02/26 10:16:36;;;;;;;;;;;;;;;3.05;69.40;102523.56;5031453;28;19929;-72
2023/02/26 10:19:08;;;;;;;;;;;;;;;3.12;67.41;102525.03;5034710;28;19932;-71
2023/02/26 10:21:44;;;;;;;;;;;;;;;3.26;66.33;102527.09;5030294;28;19924;-72
2023/02/26 10:24:16;;;;;;;;;;;;;;;3.36;63.70;102520.66;5040024;28;19924;-72
2023/02/26 10:26:45;;;;;;;;;;;;;;;3.42;61.97;102538.59;5028846;28;19924;-71
2023/02/26 10:29:30;;;;;;;;;;;;;;;3.55;61.69;102531.19;5027891;28;19925;-72
2023/02/26 10:32:16;;;;;;;;;;;;;;;3.63;61.61;102528.31;5032103;28;19921;-71
2023/02/26 10:34:50;;;;;;;;;;;;;;;3.82;61.42;102529.25;5038090;28;19975;-71
2023/02/26 10:37:32;;;;;;;;;;;;;;;3.92;60.44;102545.31;5027502;28;20572;-72
2023/02/26 10:40:08;;;;;;;;;;;;;;;4.07;59.96;102538.66;5038276;28;20400;-70
2023/02/26 10:42:47;;;;;;;;;;;;;;;4.28;61.29;102535.19;5033629;28;19928;-73
2023/02/26 10:45:27;;;;;;;;;;;;;;;4.44;59.44;102544.97;5033316;28;19983;-71
2023/02/26 10:47:54;;;;;;;;;;;;;;;4.61;59.62;102533.84;5042572;28;19944;-69
2023/02/26 10:50:21;;;;;;;;;;;;;;;4.80;59.98;102550.31;5026436;28;19979;-70
2023/02/26 10:52:49;;;;;;;;;;;;;;;4.94;57.93;102558.38;5042057;28;19924;-72
2023/02/26 10:55:28;;;;;;;;;;;;;;;4.97;58.84;102548.75;5015334;28;19925;-69
2023/02/26 10:58:00;;;;;;;;;;;;;;;5.12;58.49;102548.09;5028376;28;19931;-71
2023/02/26 11:00:27;;;;;;;;;;;;;;;5.22;58.12;102548.53;5044932;28;20039;-71
2023/02/26 11:02:55;;;;;;;;;;;;;;;5.33;57.50;102544.50;5030655;28;19951;-71
2023/02/26 11:05:22;;;;;;;;;;;;;;;5.44;57.68;102549.22;5028117;28;19925;-69
2023/02/26 11:07:52;;;;;;;;;;;;;;;5.53;56.54;102543.59;5025175;28;20283;-70
2023/02/26 11:10:20;;;;;;;;;;;;;;;5.65;56.33;102539.56;5027222;28;20387;-71
2023/02/26 11:12:47;;;;;;;;;;;;;;;5.84;57.00;102546.50;5034452;28;19932;-71
2023/02/26 11:15:16;;;;;;;;;;;;;;;5.83;54.98;102548.25;5025374;28;19928;-71
2023/02/26 11:17:42;;;;;;;;;;;;;;;5.98;56.26;102540.66;5038632;28;19932;-70
2023/02/26 11:20:18;;;;;;;;;;;;;;;5.96;56.93;102550.31;5026947;28;19928;-71
2023/02/26 11:22:51;;;;;;;;;;;;;;;6.08;53.48;102545.34;5035286;28;19952;-72
2023/02/26 11:25:21;;;;;;;;;;;;;;;6.27;54.56;102545.31;5022810;28;20632;-71
2023/02/26 11:27:49;;;;;;;;;;;;;;;6.29;52.97;102545.22;5026757;28;20004;-71
2023/02/26 11:30:17;;;;;;;;;;;;;;;6.39;53.12;102543.84;5022094;28;19927;-71
2023/02/26 11:32:45;;;;;;;;;;;;;;;6.47;53.54;102540.84;5037866;28;19982;-70
2023/02/26 11:35:14;;;;;;;;;;;;;;;6.79;54.41;102543.56;5044496;28;20008;-71
2023/02/26 11:37:46;;;;;;;;;;;;;;;6.98;53.41;102527.78;5034995;28;20310;-71
2023/02/26 11:40:20;;;;;;;;;;;;;;;7.15;53.95;102529.50;5041012;28;19925;-72
2023/02/26 11:42:49;;;;;;;;;;;;;;;7.38;53.11;102536.94;5033099;28;19925;-71
2023/02/26 11:45:20;;;;;;;;;;;;;;;7.27;50.99;102526.22;5027328;28;19932;-72
2023/02/26 11:47:55;;;;;;;;;;;;;;;7.45;52.69;102529.63;5029962;28;20408;-71
2023/02/26 11:50:22;;;;;;;;;;;;;;;7.53;50.64;102533.50;5027844;28;19947;-69
2023/02/26 11:53:06;;;;;;;;;;;;;;;7.48;52.17;102532.06;5034363;28;19944;-69
2023/02/26 11:55:36;;;;;;;;;;;;;;;7.48;50.08;102527.66;5037356;28;19971;-70
2023/02/26 11:58:13;;;;;;;;;;;;;;;7.44;50.41;102523.53;5025273;28;20404;-71
2023/02/26 12:00:40;;;;;;;;;;;;;;;7.51;50.15;102532.75;5039644;28;19925;-69
2023/02/26 12:03:14;;;;;;;;;;;;;;;7.58;49.89;102522.78;5046031;28;20289;-69
2023/02/26 12:05:46;;;;;;;;;;;;;;;7.66;49.08;102519.75;5021998;28;19925;-70
2023/02/26 12:08:17;;;;;;;;;;;;;;;7.85;48.51;102520.41;5039121;28;19924;-68
2023/02/26 12:10:52;;;;;;;;;;;;;;;8.00;47.45;102523.09;5030595;28;19946;-69
2023/02/26 12:13:25;;;;;;;;;;;;;;;8.11;48.52;102524.16;5028890;28;19936;-69
2023/02/26 12:15:57;;;;;;;;;;;;;;;8.17;51.29;102517.69;5027452;28;19931;-69
2023/02/26 12:18:26;;;;;;;;;;;;;;;8.14;47.26;102520.50;5036881;28;19932;-69
2023/02/26 12:20:53;;;;;;;;;;;;;;;8.16;49.51;102521.25;5022326;28;20332;-69
2023/02/26 12:23:38;;;;;;;;;;;;;;;8.30;49.45;102520.47;5022244;28;19936;-69
2023/02/26 12:26:10;;;;;;;;;;;;;;;8.34;48.34;102511.50;5027704;28;19925;-69
2023/02/26 12:28:36;;;;;;;;;;;;;;;8.36;48.87;102516.66;5032401;28;19925;-68
2023/02/26 12:31:23;;;;;;;;;;;;;;;8.42;47.73;102508.47;5022413;28;20004;-68
2023/02/26 12:34:05;;;;;;;;;;;;;;;8.50;49.03;102516.69;5026028;28;19950;-69
2023/02/26 12:36:49;;;;;;;;;;;;;;;8.55;47.19;102514.66;5043421;28;19998;-69
2023/02/26 12:39:29;;;;;;;;;;;;;;;8.71;51.31;102514.56;5036069;28;19928;-69
2023/02/26 12:42:04;;;;;;;;;;;;;;;8.68;47.23;102509.50;5037407;28;19924;-69
2023/02/26 12:44:50;;;;;;;;;;;;;;;8.64;46.99;102505.41;5031401;28;20031;-70
2023/02/26 12:47:31;;;;;;;;;;;;;;;8.74;48.52;102516.16;5032589;28;19924;-69
2023/02/26 12:50:17;;;;;;;;;;;;;;;8.83;48.70;102512.97;5027675;28;19921;-70
2023/02/26 12:52:46;;;;;;;;;;;;;;;8.85;47.96;102506.72;5038015;28;20055;-69
2023/02/26 12:55:19;;;;;;;;;;;;;;;8.95;46.72;102506.16;5029333;28;19961;-70
2023/02/26 12:58:04;;;;;;;;;;;;;;;9.05;46.53;102508.09;5041889;28;19986;-70